createdAt,value
2022-12-15T00:05:09.241Z,-2.44
2022-12-15T00:10:17.757Z,-2.56
2022-12-15T00:15:26.202Z,-2.5
2022-12-15T00:20:35.980Z,-2.75
2022-12-15T00:25:44.470Z,-2.94
2022-12-15T00:30:58.938Z,-2.62
2022-12-15T00:36:02.683Z,-2.69
2022-12-15T00:41:11.800Z,-2.69
2022-12-15T00:46:20.363Z,-2.75
2022-12-15T00:51:30.071Z,-2.81
2022-12-15T00:56:39.159Z,-2.56
2022-12-15T01:01:47.231Z,-2.56
2022-12-15T01:06:56.792Z,-2.75
2022-12-15T01:12:05.255Z,-2.62
2022-12-15T01:17:13.723Z,-2.88
2022-12-15T01:22:24.760Z,-2.94
2022-12-15T01:27:33.880Z,-2.62
2022-12-15T01:32:46.444Z,-2.81
2022-12-15T01:37:52.125Z,-2.81
2022-12-15T01:43:00.605Z,-3
2022-12-15T01:48:10.391Z,-3.31
2022-12-15T01:53:20.117Z,-3.06
2022-12-15T01:58:28.600Z,-2.81
2022-12-15T02:03:38.355Z,-2.88
2022-12-15T02:08:47.494Z,-2.69
2022-12-15T02:13:55.992Z,-2.94
2022-12-15T02:19:07.000Z,-2.94
2022-12-15T02:24:15.509Z,-2.69
2022-12-15T02:29:23.965Z,-2.75
2022-12-15T02:34:33.187Z,-2.5
2022-12-15T02:39:49.990Z,-2.12
2022-12-15T02:45:06.144Z,-2.19
2022-12-15T02:50:21.069Z,-2.5
2022-12-15T02:55:37.186Z,-2.38
2022-12-15T03:00:52.107Z,-2.12
2022-12-15T03:06:07.585Z,-2.06
2022-12-15T03:10:34.997Z,-2.12
2022-12-15T03:15:45.401Z,-2.25
2022-12-15T03:20:54.519Z,-2.44
2022-12-15T03:26:03.028Z,-2.69
2022-12-15T03:31:11.480Z,-2.75
2022-12-15T03:36:21.241Z,-2.88
2022-12-15T03:41:31.005Z,-2.5
2022-12-15T03:46:38.840Z,-2.31
2022-12-15T03:51:47.324Z,-2.88
2022-12-15T03:56:55.831Z,-2.5
2022-12-15T04:02:05.147Z,-2.31
2022-12-15T04:07:16.606Z,-2.19
2022-12-15T04:12:27.591Z,-2.5
2022-12-15T04:17:34.871Z,-2.31
2022-12-15T04:22:43.326Z,-2.31
2022-12-15T04:28:01.305Z,-2.19
2022-12-15T04:33:02.230Z,-2.75
2022-12-15T04:38:10.044Z,-2.88
2022-12-15T04:43:19.801Z,-2.81
2022-12-15T04:48:28.959Z,-2.94
2022-12-15T04:53:37.413Z,-3
2022-12-15T04:58:47.164Z,-3
2022-12-15T05:03:57.001Z,-2.81
2022-12-15T05:09:06.037Z,-2.81
2022-12-15T05:14:15.798Z,-2.88
2022-12-15T05:19:25.564Z,-2.94
2022-12-15T05:24:35.323Z,-2.88
2022-12-15T05:29:44.444Z,-2.75
2022-12-15T05:34:53.592Z,-2.75
2022-12-15T05:40:02.680Z,-2.75
2022-12-15T05:45:12.475Z,-2.69
2022-12-15T05:50:20.960Z,-2.56
2022-12-15T05:55:30.691Z,-2.31
2022-12-15T06:00:39.830Z,-2.38
2022-12-15T06:05:56.676Z,-2.12
2022-12-15T06:11:00.614Z,-2.38
2022-12-15T06:16:09.153Z,-2.19
2022-12-15T06:21:19.507Z,-2.5
2022-12-15T06:26:28.603Z,-2.44
2022-12-15T06:31:38.539Z,-2.69
2022-12-15T06:36:48.116Z,-2.75
2022-12-15T06:41:57.928Z,-2.75
2022-12-15T06:47:07.096Z,-2.81
2022-12-15T06:52:22.059Z,-2.88
2022-12-15T06:57:39.946Z,-2.69
2022-12-15T07:02:53.297Z,-2.88
2022-12-15T07:08:09.216Z,-3
2022-12-15T07:13:24.695Z,-2.62
2022-12-15T07:18:40.864Z,-2.38
2022-12-15T07:23:10.873Z,-2.5
2022-12-15T07:28:25.883Z,-2.5
2022-12-15T07:33:29.659Z,-2.56
2022-12-15T07:38:37.595Z,-2.62
2022-12-15T07:43:46.046Z,-2.75
2022-12-15T07:48:55.166Z,-2.19
2022-12-15T07:54:04.315Z,-2.25
2022-12-15T07:59:14.038Z,-2.38
2022-12-15T08:04:24.467Z,-2.12
2022-12-15T08:09:34.841Z,-2.5
2022-12-15T08:14:44.601Z,-2.94
2022-12-15T08:19:58.965Z,-3
2022-12-15T08:25:02.876Z,-3
2022-12-15T08:30:12.603Z,-2.94
2022-12-15T08:35:56.982Z,-3.06
2022-12-15T08:40:30.826Z,-2.94
2022-12-15T08:45:40.012Z,-2.88
2022-12-15T08:50:49.120Z,-2.69
2022-12-15T08:55:58.841Z,-2.44
2022-12-15T09:01:08.065Z,-2.19
2022-12-15T09:06:17.723Z,-2.25
2022-12-15T09:11:26.841Z,-2.38
2022-12-15T09:16:34.858Z,-2.31
2022-12-15T09:21:43.800Z,-2.06
2022-12-15T09:26:52.284Z,-2
2022-12-15T09:32:02.190Z,-1.75
2022-12-15T09:37:17.029Z,-1.5
2022-12-15T09:42:31.922Z,-1.38
2022-12-15T09:47:47.428Z,-1.06
2022-12-15T09:53:02.952Z,-0.5
2022-12-15T09:58:19.105Z,-0.56
2022-12-15T10:03:34.481Z,-0.62
2022-12-15T10:08:04.095Z,-0.12
2022-12-15T10:13:12.454Z,0.25
2022-12-15T10:18:22.244Z,0.31
2022-12-15T10:23:31.659Z,0.56
2022-12-15T15:03:47.965Z,1.56
2022-12-15T15:08:57.082Z,1.62
2022-12-15T15:14:07.485Z,1.69
2022-12-15T15:19:44.901Z,1.5
2022-12-15T15:24:59.765Z,1.38
2022-12-15T15:30:14.663Z,1.12
2022-12-15T15:34:43.324Z,0.88
2022-12-15T15:39:53.083Z,0.62
2022-12-15T15:45:02.844Z,0.69
2022-12-15T15:50:12.603Z,0.56
2022-12-15T15:55:21.765Z,0.44
2022-12-15T16:00:31.488Z,0.31
2022-12-15T16:05:40.637Z,0.25
2022-12-15T16:10:49.097Z,0.31
2022-12-15T16:15:58.372Z,0.5
2022-12-15T16:21:06.688Z,0.25
2022-12-15T16:26:15.807Z,0.5
2022-12-15T16:31:24.435Z,0.38
2022-12-15T16:36:32.767Z,0.38
2022-12-15T16:41:42.527Z,0.25
2022-12-15T16:46:51.802Z,0.25
2022-12-15T16:52:00.122Z,0.12
2022-12-15T16:57:09.883Z,0.25
2022-12-15T17:02:19.493Z,0.06
2022-12-15T17:07:28.780Z,0.12
2022-12-15T17:12:37.246Z,0.06
2022-12-15T17:17:45.083Z,0.19
2022-12-15T17:22:54.885Z,0
2022-12-15T17:28:03.977Z,0.06
2022-12-15T17:33:13.084Z,-0.12
2022-12-15T17:38:22.202Z,-0.06
2022-12-15T17:43:36.235Z,-0.25
2022-12-15T17:48:40.477Z,-0.25
2022-12-15T17:53:50.202Z,-0.38
2022-12-15T17:58:59.307Z,-0.5
2022-12-15T18:04:08.613Z,-0.56
